createdAt,value
2022-08-07T00:01:44.232Z,21.48
2022-08-07T00:04:37.279Z,21.46
2022-08-07T00:07:09.550Z,21.44
2022-08-07T00:09:40.251Z,21.41
2022-08-07T00:12:19.677Z,21.40
2022-08-07T00:14:50.293Z,21.37
2022-08-07T00:17:23.559Z,21.34
2022-08-07T00:20:03.317Z,21.29
2022-08-07T00:22:38.205Z,21.27
2022-08-07T00:25:15.809Z,21.25
2022-08-07T00:27:52.255Z,21.23
2022-08-07T00:30:28.556Z,21.22
2022-08-07T00:32:58.611Z,21.20
2022-08-07T00:35:30.433Z,21.18
2022-08-07T00:38:01.611Z,21.15
2022-08-07T00:40:40.110Z,21.11
2022-08-07T00:44:01.780Z,21.07
2022-08-07T00:46:04.679Z,21.04
2022-08-07T00:48:37.667Z,21.01
2022-08-07T00:51:12.552Z,20.99
2022-08-07T00:53:55.120Z,20.98
2022-08-07T00:56:30.212Z,20.95
2022-08-07T00:59:03.804Z,20.93
2022-08-07T01:01:44.528Z,20.93
2022-08-07T01:04:24.685Z,20.92
2022-08-07T01:06:59.403Z,20.92
2022-08-07T01:10:05.124Z,20.91
2022-08-07T01:12:30.077Z,20.90
2022-08-07T01:15:04.688Z,20.88
2022-08-07T01:17:37.126Z,20.86
2022-08-07T01:20:16.859Z,20.87
2022-08-07T01:23:16.735Z,20.86
2022-08-07T01:26:00.439Z,20.84
2022-08-07T01:28:30.034Z,20.82
2022-08-07T01:31:01.072Z,20.78
2022-08-07T01:33:55.815Z,20.77
2022-08-07T01:36:36.417Z,20.74
2022-08-07T01:39:16.535Z,20.70
2022-08-07T01:42:07.095Z,20.67
2022-08-07T01:44:40.422Z,20.62
2022-08-07T01:47:14.311Z,20.59
2022-08-07T01:50:06.676Z,20.57
2022-08-07T01:52:49.301Z,20.53
2022-08-07T01:55:22.369Z,20.52
2022-08-07T01:58:05.920Z,20.52
2022-08-07T02:01:10.271Z,20.50
2022-08-07T02:03:50.405Z,20.48
2022-08-07T02:06:31.410Z,20.47
2022-08-07T02:09:51.785Z,20.47
2022-08-07T02:12:29.105Z,20.47
2022-08-07T02:15:06.035Z,20.47
2022-08-07T02:17:49.486Z,20.47
2022-08-07T02:20:24.948Z,20.45
2022-08-07T02:23:01.940Z,20.44
2022-08-07T02:26:30.389Z,20.44
2022-08-07T02:28:45.155Z,20.45
2022-08-07T02:31:29.120Z,20.45
2022-08-07T02:34:11.431Z,20.46
2022-08-07T02:36:49.927Z,20.46
2022-08-07T02:39:42.506Z,20.47
2022-08-07T02:42:19.331Z,20.46
2022-08-07T02:44:54.270Z,20.45
2022-08-07T02:47:45.116Z,20.43
2022-08-07T02:50:18.455Z,20.43
2022-08-07T02:53:03.556Z,20.43
2022-08-07T02:56:03.710Z,20.41
2022-08-07T02:58:39.786Z,20.37
2022-08-07T03:01:35.456Z,20.34
2022-08-07T03:04:12.955Z,20.29
2022-08-07T03:06:46.165Z,20.23
2022-08-07T03:09:42.182Z,20.17
2022-08-07T03:12:22.054Z,20.11
2022-08-07T03:14:56.578Z,20.07
2022-08-07T03:17:25.394Z,20.04
2022-08-07T03:19:59.481Z,20.03
2022-08-07T03:22:30.972Z,20.00
2022-08-07T03:25:01.546Z,19.98
2022-08-07T03:27:58.745Z,19.95
2022-08-07T03:30:35.118Z,19.93
2022-08-07T03:33:10.008Z,19.92
2022-08-07T03:35:50.128Z,19.91
2022-08-07T03:38:29.455Z,19.91
2022-08-07T03:41:01.621Z,19.90
2022-08-07T03:43:36.071Z,19.89
2022-08-07T03:46:18.435Z,19.89
2022-08-07T03:49:02.535Z,19.91
2022-08-07T03:51:47.859Z,19.92
2022-08-07T03:54:36.279Z,19.94
2022-08-07T03:58:32.465Z,19.95
2022-08-07T04:00:04.404Z,19.98
2022-08-07T04:02:47.324Z,20.02
2022-08-07T04:05:40.430Z,20.06
2022-08-07T04:08:18.364Z,20.08
2022-08-07T04:10:54.199Z,20.12
2022-08-07T04:14:10.700Z,20.18
2022-08-07T04:16:43.030Z,20.22
2022-08-07T04:19:51.003Z,20.27
2022-08-07T04:22:27.527Z,20.32
2022-08-07T04:25:03.683Z,20.36
2022-08-07T04:27:44.388Z,20.43
2022-08-07T04:30:43.969Z,20.51
2022-08-07T04:33:35.274Z,20.57
2022-08-07T04:36:06.425Z,20.60
2022-08-07T04:38:37.209Z,20.65
2022-08-07T04:41:10.175Z,20.70
2022-08-07T04:44:10.626Z,20.74
2022-08-07T04:47:04.545Z,20.81
2022-08-07T04:50:19.727Z,20.89
2022-08-07T04:53:39.895Z,20.98
2022-08-07T04:58:15.791Z,21.06
2022-08-07T05:00:09.889Z,21.16
2022-08-07T05:02:31.400Z,21.27
2022-08-07T05:05:52.936Z,21.36
2022-08-07T05:08:59.850Z,21.43
2022-08-07T05:11:26.186Z,21.52
2022-08-07T05:14:55.370Z,21.62
2022-08-07T05:17:11.997Z,21.67
2022-08-07T05:19:47.719Z,21.71
2022-08-07T05:22:27.610Z,21.72
2022-08-07T05:25:03.317Z,21.72
2022-08-07T05:28:03.337Z,21.74
2022-08-07T05:30:34.785Z,21.76
2022-08-07T05:33:11.782Z,21.88
2022-08-07T05:35:48.727Z,22.06
2022-08-07T05:39:00.728Z,22.30
2022-08-07T05:41:16.621Z,22.59
2022-08-07T05:44:12.682Z,22.90
2022-08-07T05:46:43.148Z,23.32
2022-08-07T05:49:14.335Z,23.67
2022-08-07T05:51:47.351Z,24.02
2022-08-07T05:54:31.042Z,24.33
2022-08-07T05:57:09.481Z,24.73
2022-08-07T05:59:57.839Z,25.12
2022-08-07T06:02:52.513Z,25.48
2022-08-07T06:05:33.372Z,25.81
2022-08-07T06:08:30.358Z,26.19
2022-08-07T06:11:04.940Z,26.63
2022-08-07T06:14:13.719Z,27.02
2022-08-07T06:16:33.631Z,27.49
2022-08-07T06:19:58.221Z,27.88
2022-08-07T06:22:23.124Z,28.28
2022-08-07T06:25:04.729Z,28.80
2022-08-07T06:28:00.456Z,29.33
2022-08-07T06:30:38.617Z,29.85
2022-08-07T06:33:22.547Z,30.31
2022-08-07T06:36:12.061Z,30.75
2022-08-07T06:38:59.026Z,31.15
2022-08-07T06:41:59.165Z,31.52
2022-08-07T06:44:52.972Z,31.70
2022-08-07T06:47:28.723Z,31.48
2022-08-07T06:50:19.006Z,31.16
2022-08-07T06:52:56.811Z,30.82
2022-08-07T06:56:00.033Z,30.62
2022-08-07T06:58:27.584Z,30.58
2022-08-07T07:01:14.413Z,30.82
2022-08-07T07:03:48.072Z,31.20
2022-08-07T07:06:26.545Z,31.58
2022-08-07T07:09:20.900Z,32.03
2022-08-07T07:12:08.161Z,32.61
2022-08-07T07:15:23.749Z,33.16
2022-08-07T07:18:05.565Z,33.59
2022-08-07T07:20:57.531Z,34.09
2022-08-07T07:24:08.111Z,34.50
2022-08-07T07:26:33.188Z,34.93
2022-08-07T07:29:38.932Z,35.38
2022-08-07T07:32:12.247Z,35.50
2022-08-07T07:34:53.770Z,35.40
2022-08-07T07:37:49.445Z,35.51
2022-08-07T07:40:21.541Z,35.70
2022-08-07T07:43:27.427Z,35.70
2022-08-07T07:46:38.266Z,35.82
2022-08-07T07:50:32.675Z,36.08
2022-08-07T07:52:44.477Z,36.25
2022-08-07T07:55:20.894Z,36.31
2022-08-07T07:57:58.666Z,36.31
2022-08-07T08:00:35.098Z,35.92
2022-08-07T08:03:16.652Z,35.58
2022-08-07T08:05:55.173Z,35.26
2022-08-07T08:08:34.482Z,35.24
2022-08-07T08:11:15.997Z,35.12
2022-08-07T08:14:12.455Z,34.67
2022-08-07T08:17:56.521Z,34.44
2022-08-07T08:20:26.265Z,34.10
2022-08-07T08:23:23.032Z,34.19
2022-08-07T08:26:19.491Z,34.52
2022-08-07T08:28:57.660Z,34.65
2022-08-07T08:31:59.221Z,34.52
2022-08-07T08:34:39.050Z,34.26
2022-08-07T08:37:59.543Z,34.26
2022-08-07T08:40:51.435Z,34.51
2022-08-07T08:43:58.607Z,34.40
2022-08-07T08:46:28.700Z,34.31
2022-08-07T08:49:09.792Z,34.33
2022-08-07T08:52:16.464Z,34.33
2022-08-07T09:02:34.746Z,35.97
2022-08-07T09:05:52.095Z,36.89
2022-08-07T09:11:56.765Z,38.15
2022-08-07T09:18:58.195Z,38.38
2022-08-07T09:25:28.003Z,38.69
2022-08-07T09:30:05.419Z,38.40
2022-08-07T09:31:38.654Z,38.22
2022-08-07T09:34:37.385Z,37.76
2022-08-07T09:37:55.893Z,37.32
2022-08-07T09:41:19.697Z,36.54
2022-08-07T09:47:25.812Z,36.06
2022-08-07T09:48:00.120Z,35.66
2022-08-07T09:52:10.008Z,35.98
2022-08-07T09:54:43.732Z,36.23
2022-08-07T09:57:46.372Z,35.97
2022-08-07T10:00:32.024Z,35.53
2022-08-07T10:04:04.770Z,35.10
2022-08-07T10:06:49.143Z,34.82
2022-08-07T10:10:00.071Z,34.46
2022-08-07T10:13:58.349Z,34.83
2022-08-07T10:16:55.590Z,35.71
2022-08-07T10:19:37.570Z,35.84
2022-08-07T10:22:58.933Z,35.63
2022-08-07T10:26:01.301Z,35.16
2022-08-07T10:28:53.434Z,34.73
2022-08-07T10:31:41.151Z,34.26
2022-08-07T10:34:45.280Z,33.66
2022-08-07T10:38:09.818Z,33.07
2022-08-07T10:41:11.195Z,32.42
2022-08-07T10:44:08.490Z,31.64
2022-08-07T10:46:46.902Z,30.79
2022-08-07T10:49:51.265Z,30.04
2022-08-07T10:52:51.195Z,29.34
2022-08-07T10:55:45.380Z,28.92
2022-08-07T10:58:36.655Z,28.64
2022-08-07T11:01:51.393Z,28.48
2022-08-07T11:04:45.630Z,28.36
2022-08-07T11:07:59.491Z,28.29
2022-08-07T11:10:39.280Z,28.28
2022-08-07T11:14:45.196Z,28.31
2022-08-07T11:16:42.087Z,28.40
2022-08-07T11:19:35.164Z,28.52
2022-08-07T11:22:37.069Z,28.57
2022-08-07T11:25:50.313Z,28.62
2022-08-07T11:28:32.190Z,28.78
2022-08-07T11:31:11.693Z,28.92
2022-08-07T11:34:10.857Z,29.09
2022-08-07T11:37:00.409Z,29.27
2022-08-07T11:44:12.740Z,29.74
2022-08-07T11:51:09.077Z,30.32
2022-08-07T11:54:09.700Z,30.73
2022-08-07T11:57:58.074Z,31.16
2022-08-07T12:00:19.765Z,31.31
2022-08-07T12:03:54.824Z,31.05
2022-08-07T12:06:57.326Z,30.80
2022-08-07T12:09:51.136Z,30.55
2022-08-07T12:12:43.220Z,30.43
2022-08-07T12:16:05.663Z,30.26
2022-08-07T12:18:56.251Z,30.05
2022-08-07T12:22:35.838Z,30.14
2022-08-07T12:25:07.699Z,30.37
2022-08-07T12:28:05.765Z,30.45
2022-08-07T12:34:00.845Z,30.58
2022-08-07T12:36:39.308Z,30.63
2022-08-07T12:39:43.074Z,30.61
2022-08-07T12:42:54.917Z,30.71
2022-08-07T12:45:59.265Z,30.88
2022-08-07T12:49:09.837Z,30.80
2022-08-07T12:52:34.175Z,30.84
2022-08-07T12:55:09.401Z,30.99
2022-08-07T12:58:07.322Z,31.10
2022-08-07T13:01:05.646Z,31.17
2022-08-07T13:04:49.227Z,31.35
2022-08-07T13:08:18.938Z,31.50
2022-08-07T13:14:58.381Z,31.62
2022-08-07T13:18:07.980Z,31.46
2022-08-07T13:20:46.643Z,31.41
2022-08-07T13:24:11.350Z,31.47
2022-08-07T13:27:05.451Z,31.48
2022-08-07T13:30:05.474Z,31.56
2022-08-07T13:34:33.211Z,31.53
2022-08-07T13:36:43.781Z,31.30
2022-08-07T13:39:28.494Z,31.27
2022-08-07T13:42:14.736Z,31.39
2022-08-07T13:46:07.057Z,31.40
2022-08-07T13:51:26.984Z,31.49
2022-08-07T13:54:04.973Z,31.43
2022-08-07T13:56:41.404Z,31.55
2022-08-07T13:59:33.322Z,31.70
2022-08-07T14:05:38.348Z,31.84
2022-08-07T14:08:18.298Z,31.82
2022-08-07T14:11:02.008Z,31.96
2022-08-07T14:13:56.318Z,31.92
2022-08-07T14:16:31.914Z,31.74
2022-08-07T14:20:42.000Z,31.58
2022-08-07T14:22:53.359Z,31.49
2022-08-07T14:25:39.357Z,31.45
2022-08-07T14:28:55.941Z,31.41
2022-08-07T14:31:10.181Z,31.38
2022-08-07T14:33:48.758Z,31.44
2022-08-07T14:36:20.941Z,31.51
2022-08-07T14:38:54.760Z,31.42
2022-08-07T14:41:34.171Z,31.21
2022-08-07T14:47:45.714Z,31.23
2022-08-07T14:53:17.753Z,31.30
2022-08-07T14:56:15.764Z,31.33
2022-08-07T15:00:03.207Z,31.40
2022-08-07T15:05:26.281Z,31.29
2022-08-07T15:07:59.398Z,31.19
2022-08-07T15:10:29.815Z,31.11
2022-08-07T15:13:12.302Z,31.06
2022-08-07T15:18:41.705Z,30.92
2022-08-07T15:25:15.380Z,30.83
2022-08-07T15:31:04.839Z,30.55
2022-08-07T15:33:42.680Z,30.47
2022-08-07T15:37:03.194Z,30.42
2022-08-07T15:39:10.626Z,30.18
2022-08-07T15:42:44.141Z,30.02
2022-08-07T15:45:55.923Z,29.95
2022-08-07T15:48:36.088Z,29.98
2022-08-07T15:55:02.642Z,30.20
2022-08-07T15:57:48.155Z,30.31
2022-08-07T16:00:31.579Z,30.42
2022-08-07T16:03:20.584Z,30.47
2022-08-07T16:05:55.568Z,30.45
2022-08-07T16:08:38.497Z,30.40
2022-08-07T16:11:43.304Z,30.43
2022-08-07T16:14:54.242Z,30.47
2022-08-07T16:22:01.955Z,30.46
2022-08-07T16:25:11.092Z,30.38
2022-08-07T16:28:02.316Z,30.26
2022-08-07T16:30:41.332Z,30.19
2022-08-07T16:34:02.720Z,30.12
2022-08-07T16:36:31.447Z,30.04
2022-08-07T16:39:49.459Z,29.93
2022-08-07T16:44:06.333Z,29.79
2022-08-07T16:47:07.843Z,29.59
2022-08-07T16:50:28.168Z,29.42
2022-08-07T16:54:02.413Z,29.25
2022-08-07T16:56:49.305Z,29.11
2022-08-07T17:00:03.181Z,28.97
2022-08-07T17:07:02.769Z,28.68
2022-08-07T17:10:09.450Z,28.54
2022-08-07T17:13:04.022Z,28.39
2022-08-07T17:16:22.457Z,28.28
2022-08-07T17:20:01.019Z,28.12
2022-08-07T17:22:44.201Z,27.96
2022-08-07T17:25:20.275Z,27.84
2022-08-07T17:28:54.840Z,27.74
2022-08-07T17:32:03.383Z,27.62
2022-08-07T17:35:40.184Z,27.51
2022-08-07T17:38:15.074Z,27.42
2022-08-07T17:42:01.107Z,27.32
2022-08-07T17:44:34.164Z,27.21
2022-08-07T17:47:42.022Z,27.10
2022-08-07T17:50:30.595Z,27.01
2022-08-07T17:54:00.796Z,26.94
2022-08-07T17:56:54.687Z,26.84
2022-08-07T18:00:07.641Z,26.76
2022-08-07T18:03:09.053Z,26.68
2022-08-07T18:06:16.498Z,26.61
2022-08-07T18:09:01.945Z,26.53
2022-08-07T18:12:17.869Z,26.44
2022-08-07T18:15:08.791Z,26.32
2022-08-07T18:18:47.543Z,26.24
2022-08-07T18:21:42.332Z,26.15
2022-08-07T18:24:33.796Z,26.05
2022-08-07T18:31:33.739Z,25.81
2022-08-07T18:34:53.400Z,25.71
2022-08-07T18:41:45.254Z,25.53
2022-08-07T18:48:10.457Z,25.35
2022-08-07T18:52:37.376Z,25.26
2022-08-07T18:54:55.569Z,25.19
2022-08-07T18:57:58.369Z,25.11
2022-08-07T19:00:54.103Z,25.06
2022-08-07T19:03:35.550Z,24.99
2022-08-07T19:06:36.952Z,24.92
2022-08-07T19:09:57.625Z,24.87
2022-08-07T19:12:49.033Z,24.80
2022-08-07T19:16:05.234Z,24.74
2022-08-07T19:19:20.251Z,24.69
2022-08-07T19:26:24.611Z,24.56
2022-08-07T19:28:29.892Z,24.50
2022-08-07T19:31:43.655Z,24.44
2022-08-07T19:34:33.830Z,24.39
2022-08-07T19:37:17.254Z,24.34
2022-08-07T19:40:15.566Z,24.30
2022-08-07T19:42:47.837Z,24.25
2022-08-07T19:46:09.755Z,24.22
2022-08-07T19:48:53.800Z,24.19
2022-08-07T19:51:53.189Z,24.13
2022-08-07T19:54:35.150Z,24.10
2022-08-07T19:58:00.720Z,24.07
2022-08-07T20:00:28.901Z,24.02
2022-08-07T20:03:33.578Z,23.97
2022-08-07T20:06:15.482Z,23.90
2022-08-07T20:09:05.930Z,23.86
2022-08-07T20:12:23.240Z,23.81
2022-08-07T20:14:58.661Z,23.77
2022-08-07T20:17:38.812Z,23.74
2022-08-07T20:20:09.970Z,23.69
2022-08-07T20:22:45.483Z,23.67
2022-08-07T20:25:20.404Z,23.61
2022-08-07T20:27:58.645Z,23.57
2022-08-07T20:30:36.876Z,23.52
2022-08-07T20:33:24.137Z,23.46
2022-08-07T20:36:05.319Z,23.41
2022-08-07T20:38:53.440Z,23.37
2022-08-07T20:41:38.476Z,23.32
2022-08-07T20:44:12.793Z,23.26
2022-08-07T20:46:46.958Z,23.20
2022-08-07T20:49:58.082Z,23.13
2022-08-07T20:52:52.048Z,23.08
2022-08-07T20:55:41.389Z,23.03
2022-08-07T20:58:12.220Z,22.98
2022-08-07T21:00:56.409Z,22.94
2022-08-07T21:03:32.671Z,22.90
2022-08-07T21:06:21.381Z,22.87
2022-08-07T21:09:07.560Z,22.82
2022-08-07T21:11:50.875Z,22.78
2022-08-07T21:14:34.303Z,22.77
2022-08-07T21:18:02.674Z,22.75
2022-08-07T21:20:09.837Z,22.71
2022-08-07T21:22:51.255Z,22.70
2022-08-07T21:25:56.366Z,22.67
2022-08-07T21:28:50.926Z,22.63
2022-08-07T21:31:49.933Z,22.61
2022-08-07T21:34:32.466Z,22.59
2022-08-07T21:37:14.625Z,22.57
2022-08-07T21:40:07.583Z,22.55
2022-08-07T21:42:55.634Z,22.54
2022-08-07T21:46:07.895Z,22.52
2022-08-07T21:48:56.113Z,22.48
2022-08-07T21:51:34.062Z,22.45
2022-08-07T21:54:48.289Z,22.41
2022-08-07T21:57:52.333Z,22.37
2022-08-07T22:00:29.689Z,22.32
2022-08-07T22:03:09.086Z,22.29
2022-08-07T22:05:48.287Z,22.28
2022-08-07T22:08:21.899Z,22.27
2022-08-07T22:11:01.151Z,22.26
2022-08-07T22:13:50.272Z,22.25
2022-08-07T22:16:44.881Z,22.24
2022-08-07T22:19:37.001Z,22.21
2022-08-07T22:22:27.426Z,22.20
2022-08-07T22:25:08.263Z,22.17
2022-08-07T22:28:07.548Z,22.14
2022-08-07T22:31:45.193Z,22.09
2022-08-07T22:34:35.941Z,22.02
2022-08-07T22:37:12.575Z,21.99
2022-08-07T22:40:06.029Z,21.94
2022-08-07T22:42:47.106Z,21.91
2022-08-07T22:46:04.413Z,21.86
2022-08-07T22:49:07.800Z,21.80
2022-08-07T22:51:57.375Z,21.75
2022-08-07T22:55:17.320Z,21.73
2022-08-07T22:58:11.289Z,21.66
2022-08-07T23:00:46.207Z,21.62
2022-08-07T23:03:57.993Z,21.57
2022-08-07T23:06:35.305Z,21.50
2022-08-07T23:10:05.051Z,21.45
2022-08-07T23:12:20.834Z,21.41
2022-08-07T23:16:07.211Z,21.37
2022-08-07T23:19:47.727Z,21.31
2022-08-07T23:22:32.615Z,21.25
2022-08-07T23:25:28.403Z,21.22
2022-08-07T23:28:22.805Z,21.17
2022-08-07T23:32:49.170Z,21.13
2022-08-07T23:34:52.946Z,21.09
2022-08-07T23:38:00.726Z,21.02
2022-08-07T23:40:39.692Z,20.95
2022-08-07T23:43:22.257Z,20.90
2022-08-07T23:46:10.353Z,20.86
2022-08-07T23:48:58.613Z,20.80
2022-08-07T23:53:01.378Z,20.76
2022-08-07T23:54:53.187Z,20.72
2022-08-07T23:57:49.611Z,20.66
